createdAt,value
2019-04-06T00:01:32.937Z,99859.13
2019-04-06T00:04:04.936Z,99857.82
2019-04-06T00:06:36.865Z,99846.28
2019-04-06T00:09:09.892Z,99843.97
2019-04-06T00:11:41.109Z,99846.05
2019-04-06T00:14:12.925Z,99842.17
2019-04-06T00:16:44.832Z,99844.27
2019-04-06T00:19:16.825Z,99844.70
2019-04-06T00:21:47.987Z,99844.19
2019-04-06T00:24:19.812Z,99843.92
2019-04-06T00:26:54.779Z,99841.45
2019-04-06T00:29:27.108Z,99847.20
2019-04-06T00:32:15.829Z,99845.56
2019-04-06T00:34:47.828Z,99850.36
2019-04-06T00:37:19.755Z,99849.86
2019-04-06T00:39:51.804Z,99852.89
2019-04-06T00:42:23.744Z,99854.11
2019-04-06T00:44:55.652Z,99854.91
2019-04-06T00:47:27.497Z,99857.41
2019-04-06T00:49:58.694Z,99857.09
2019-04-06T00:52:30.935Z,99851.92
2019-04-06T00:55:02.696Z,99858.08
2019-04-06T00:57:34.592Z,99858.39
2019-04-06T01:00:06.768Z,99855.42
2019-04-06T01:02:38.760Z,99857.36
2019-04-06T01:05:10.656Z,99857.25
2019-04-06T01:07:41.932Z,99861.88
2019-04-06T01:10:13.845Z,99866.78
2019-04-06T01:12:45.781Z,99865.59
2019-04-06T01:15:16.964Z,99871.14
2019-04-06T01:17:48.969Z,99871.72
2019-04-06T01:20:20.221Z,99873.78
2019-04-06T01:22:51.443Z,99875.35
2019-04-06T01:25:22.553Z,99867.84
2019-04-06T01:27:53.714Z,99871.91
2019-04-06T01:30:25.476Z,99866.59
2019-04-06T01:32:56.619Z,99869.77
2019-04-06T01:35:28.545Z,99867.83
2019-04-06T01:38:00.353Z,99869.15
2019-04-06T01:40:32.243Z,99873.94
2019-04-06T01:43:04.200Z,99876.92
2019-04-06T01:45:35.991Z,99876.84
2019-04-06T01:48:07.907Z,99870.86
2019-04-06T01:50:39.805Z,99866.67
2019-04-06T01:53:11.756Z,99871.46
2019-04-06T01:55:43.595Z,99865.39
2019-04-06T01:58:15.594Z,99876.41
2019-04-06T02:01:04.967Z,99872.34
2019-04-06T02:03:36.906Z,99871.91
2019-04-06T02:06:08.733Z,99871.22
2019-04-06T02:08:40.530Z,99873.27
2019-04-06T02:11:12.340Z,99870.11
2019-04-06T02:13:44.211Z,99873.41
2019-04-06T02:16:16.066Z,99871.84
2019-04-06T02:18:47.943Z,99874.13
2019-04-06T02:21:19.109Z,99880.94
2019-04-06T02:23:50.970Z,99872.29
2019-04-06T02:26:30.385Z,99871.41
2019-04-06T02:28:55.903Z,99872.28
2019-04-06T02:31:52.637Z,99875.84
2019-04-06T02:34:42.198Z,99872.13
2019-04-06T02:37:32.851Z,99875.52
2019-04-06T02:40:36.518Z,99877.94
2019-04-06T02:43:14.952Z,99879.05
2019-04-06T02:45:47.785Z,99881.99
2019-04-06T02:48:18.906Z,99882.37
2019-04-06T02:50:50.804Z,99886.09
2019-04-06T02:53:22.605Z,99889.20
2019-04-06T02:55:54.396Z,99888.64
2019-04-06T02:58:26.330Z,99883.81
2019-04-06T03:00:58.317Z,99888.91
2019-04-06T03:03:29.817Z,99882.03
2019-04-06T03:06:01.691Z,99881.77
2019-04-06T03:08:33.820Z,99877.01
2019-04-06T03:11:08.173Z,99878.66
2019-04-06T03:13:40.025Z,99880.39
2019-04-06T03:16:24.251Z,99877.06
2019-04-06T03:18:59.172Z,99881.52
2019-04-06T03:21:39.339Z,99882.02
2019-04-06T03:24:14.061Z,99881.19
2019-04-06T03:26:59.782Z,99876.23
2019-04-06T03:29:21.432Z,99878.16
2019-04-06T03:31:55.198Z,99879.58
2019-04-06T03:34:27.345Z,99879.35
2019-04-06T03:37:00.682Z,99876.78
2019-04-06T03:39:31.903Z,99878.75
2019-04-06T03:42:03.109Z,99886.45
2019-04-06T03:44:35.110Z,99877.58
2019-04-06T03:47:08.088Z,99881.35
2019-04-06T03:49:42.934Z,99879.92
2019-04-06T03:52:14.336Z,99878.89
2019-04-06T03:54:46.292Z,99877.01
2019-04-06T03:57:18.227Z,99878.66
2019-04-06T03:59:53.112Z,99875.56
2019-04-06T04:02:25.127Z,99881.77
2019-04-06T04:04:59.874Z,99877.34
2019-04-06T04:07:31.198Z,99879.98
2019-04-06T04:10:03.314Z,99886.14
2019-04-06T04:12:35.423Z,99880.44
2019-04-06T04:15:07.767Z,99885.08
2019-04-06T04:17:45.597Z,99886.39
2019-04-06T04:20:17.652Z,99873.38
2019-04-06T04:22:50.887Z,99873.05
2019-04-06T04:25:22.464Z,99875.47
2019-04-06T04:27:56.998Z,99876.25
2019-04-06T04:30:32.993Z,99876.48
2019-04-06T04:33:02.303Z,99879.00
2019-04-06T04:35:34.577Z,99881.19
2019-04-06T04:38:07.361Z,99880.52
2019-04-06T04:40:40.554Z,99886.14
2019-04-06T04:43:15.601Z,99882.71
2019-04-06T04:45:46.959Z,99880.89
2019-04-06T04:48:18.724Z,99887.05
2019-04-06T04:50:50.677Z,99875.37
2019-04-06T04:53:22.586Z,99880.16
2019-04-06T04:55:54.575Z,99884.88
2019-04-06T04:58:26.652Z,99891.41
2019-04-06T05:00:57.959Z,99888.84
2019-04-06T05:03:29.954Z,99894.05
2019-04-06T05:06:01.838Z,99898.55
2019-04-06T05:08:33.913Z,99894.73
2019-04-06T05:11:06.709Z,99898.74
2019-04-06T05:13:38.590Z,99902.75
2019-04-06T05:16:14.758Z,99900.14
2019-04-06T05:18:45.926Z,99900.14
2019-04-06T05:21:17.762Z,99895.23
2019-04-06T05:23:49.738Z,99899.69
2019-04-06T05:26:21.650Z,99904.48
2019-04-06T05:28:53.540Z,99906.94
2019-04-06T05:31:25.407Z,99901.98
2019-04-06T05:33:57.258Z,99908.47
2019-04-06T05:36:29.154Z,99910.05
2019-04-06T05:39:00.994Z,99904.27
2019-04-06T05:41:33.119Z,99908.98
2019-04-06T05:44:04.356Z,99909.77
2019-04-06T05:46:36.150Z,99914.20
2019-04-06T05:49:07.965Z,99910.48
2019-04-06T05:51:39.841Z,99920.83
2019-04-06T05:54:11.674Z,99918.17
2019-04-06T05:56:43.498Z,99917.77
2019-04-06T05:59:15.422Z,99920.99
2019-04-06T06:01:48.939Z,99919.95
2019-04-06T06:04:20.204Z,99920.12
2019-04-06T06:06:52.617Z,99923.92
2019-04-06T06:09:25.129Z,99920.61
2019-04-06T06:11:56.332Z,99928.25
2019-04-06T06:14:27.617Z,99929.08
2019-04-06T06:16:58.723Z,99935.70
2019-04-06T06:19:29.890Z,99924.56
2019-04-06T06:22:01.896Z,99934.31
2019-04-06T06:24:34.696Z,99926.89
2019-04-06T06:27:06.776Z,99932.91
2019-04-06T06:29:38.725Z,99932.23
2019-04-06T06:32:10.658Z,99932.92
2019-04-06T06:34:48.286Z,99929.45
2019-04-06T06:37:19.830Z,99927.86
2019-04-06T06:39:51.817Z,99929.66
2019-04-06T06:42:23.922Z,99932.03
2019-04-06T06:44:57.887Z,99932.44
2019-04-06T06:47:30.449Z,99931.06
2019-04-06T06:50:06.961Z,99932.61
2019-04-06T06:52:39.098Z,99918.45
2019-04-06T06:55:11.131Z,99925.65
2019-04-06T06:57:42.989Z,99928.49
2019-04-06T07:00:14.541Z,99920.64
2019-04-06T07:02:46.397Z,99924.65
2019-04-06T07:05:18.330Z,99925.33
2019-04-06T07:07:50.193Z,99925.02
2019-04-06T07:10:23.001Z,99919.19
2019-04-06T07:12:54.922Z,99928.39
2019-04-06T07:15:27.869Z,99931.20
2019-04-06T07:17:59.981Z,99932.44
2019-04-06T07:20:31.895Z,99928.19
2019-04-06T07:23:03.886Z,99935.30
2019-04-06T07:25:36.845Z,99930.19
2019-04-06T07:28:08.974Z,99927.03
2019-04-06T07:30:43.359Z,99932.06
2019-04-06T07:33:14.659Z,99934.91
2019-04-06T07:35:45.819Z,99932.48
2019-04-06T07:38:17.706Z,99930.45
2019-04-06T07:40:49.118Z,99929.05
2019-04-06T07:43:20.367Z,99927.70
2019-04-06T07:45:52.242Z,99927.30
2019-04-06T07:48:24.408Z,99931.80
2019-04-06T07:50:58.308Z,99932.49
2019-04-06T07:53:30.008Z,99934.86
2019-04-06T07:56:01.342Z,99931.28
2019-04-06T07:58:32.625Z,99924.05
2019-04-06T08:01:05.389Z,99926.31
2019-04-06T08:03:37.363Z,99929.09
2019-04-06T08:06:08.565Z,99925.03
2019-04-06T08:08:39.629Z,99921.91
2019-04-06T08:11:10.844Z,99926.30
2019-04-06T08:13:42.717Z,99925.11
2019-04-06T08:16:14.584Z,99929.16
2019-04-06T08:18:46.011Z,99931.98
2019-04-06T08:21:19.596Z,99933.06
2019-04-06T08:23:49.951Z,99928.75
2019-04-06T08:26:21.816Z,99932.67
2019-04-06T08:29:00.228Z,99931.31
2019-04-06T08:31:26.643Z,99927.62
2019-04-06T08:33:57.829Z,99929.38
2019-04-06T08:36:29.713Z,99928.69
2019-04-06T08:39:00.954Z,99933.88
2019-04-06T08:41:34.388Z,99928.02
2019-04-06T08:44:06.441Z,99927.02
2019-04-06T08:46:38.358Z,99922.16
2019-04-06T08:49:10.270Z,99925.16
2019-04-06T08:51:42.140Z,99923.52
2019-04-06T08:54:14.034Z,99920.91
2019-04-06T08:56:46.045Z,99917.19
2019-04-06T08:59:17.900Z,99919.17
2019-04-06T09:01:50.045Z,99917.47
2019-04-06T09:04:21.216Z,99915.17
2019-04-06T09:06:53.000Z,99921.13
2019-04-06T09:09:24.868Z,99920.44
2019-04-06T09:11:56.848Z,99917.30
2019-04-06T09:14:28.858Z,99907.34
2019-04-06T09:17:00.808Z,99912.08
2019-04-06T09:19:32.756Z,99908.41
2019-04-06T09:22:03.980Z,99909.55
2019-04-06T09:24:35.765Z,99905.34
2019-04-06T09:27:06.992Z,99908.01
2019-04-06T09:29:38.793Z,99903.16
2019-04-06T09:32:10.696Z,99898.32
2019-04-06T09:34:43.657Z,99898.95
2019-04-06T09:37:15.656Z,99897.70
2019-04-06T09:39:46.901Z,99899.78
2019-04-06T09:42:18.750Z,99895.96
2019-04-06T09:45:12.583Z,99893.73
2019-04-06T09:48:05.613Z,99894.80
2019-04-06T09:50:59.347Z,99891.91
2019-04-06T09:53:50.418Z,99897.98
2019-04-06T09:56:42.114Z,99896.60
2019-04-06T09:59:50.756Z,99886.72
2019-04-06T10:02:45.611Z,99894.32
2019-04-06T10:05:41.197Z,99888.72
2019-04-06T10:08:31.420Z,99883.79
2019-04-06T10:11:11.555Z,99882.91
2019-04-06T10:14:00.136Z,99878.21
2019-04-06T10:16:53.654Z,99890.97
2019-04-06T10:19:56.292Z,99876.75
2019-04-06T10:22:55.392Z,99881.33
2019-04-06T10:25:37.129Z,99879.39
2019-04-06T10:28:31.072Z,99882.19
2019-04-06T10:31:30.577Z,99881.98
2019-04-06T10:34:23.724Z,99876.75
2019-04-06T10:37:06.460Z,99867.95
2019-04-06T10:39:46.852Z,99865.20
2019-04-06T10:42:31.628Z,99860.48
2019-04-06T10:45:15.398Z,99863.06
2019-04-06T10:48:21.349Z,99865.90
2019-04-06T10:51:15.001Z,99866.21
2019-04-06T10:54:08.446Z,99859.90
2019-04-06T10:56:55.993Z,99863.98
2019-04-06T11:00:03.188Z,99856.97
2019-04-06T11:03:01.981Z,99859.27
2019-04-06T11:05:55.510Z,99856.17
2019-04-06T11:08:33.838Z,99858.98
2019-04-06T11:11:23.183Z,99850.36
2019-04-06T11:14:25.613Z,99841.89
2019-04-06T11:17:15.989Z,99848.02
2019-04-06T11:19:55.042Z,99833.70
2019-04-06T11:22:44.631Z,99826.33
2019-04-06T11:25:32.096Z,99833.60
2019-04-06T11:28:29.385Z,99836.22
2019-04-06T11:31:22.689Z,99827.92
2019-04-06T11:34:25.659Z,99829.36
2019-04-06T11:37:14.893Z,99827.47
2019-04-06T11:40:04.471Z,99816.53
2019-04-06T11:42:55.538Z,99822.39
2019-04-06T11:45:48.067Z,99807.18
2019-04-06T11:48:45.717Z,99812.69
2019-04-06T11:51:30.011Z,99795.61
2019-04-06T11:54:33.182Z,99804.83
2019-04-06T11:57:11.419Z,99795.56
2019-04-06T12:00:07.429Z,99797.66
2019-04-06T12:03:04.729Z,99797.05
2019-04-06T12:05:44.646Z,99809.39
2019-04-06T12:08:40.330Z,99799.59
2019-04-06T12:11:27.269Z,99792.27
2019-04-06T12:14:17.639Z,99786.99
2019-04-06T12:17:16.012Z,99786.16
2019-04-06T12:20:17.629Z,99778.30
2019-04-06T12:23:07.986Z,99786.55
2019-04-06T12:26:01.576Z,99787.25
2019-04-06T12:28:53.630Z,99778.77
2019-04-06T12:31:46.928Z,99785.72
2019-04-06T12:34:37.667Z,99778.77
2019-04-06T12:37:43.497Z,99777.20
2019-04-06T12:40:43.524Z,99779.26
2019-04-06T12:43:33.360Z,99769.86
2019-04-06T12:46:20.966Z,99767.24
2019-04-06T12:49:11.081Z,99769.82
2019-04-06T12:52:08.266Z,99756.06
2019-04-06T12:55:02.457Z,99755.34
2019-04-06T12:57:50.062Z,99751.25
2019-04-06T13:00:52.621Z,99741.92
2019-04-06T13:03:40.174Z,99744.13
2019-04-06T13:06:37.875Z,99748.82
2019-04-06T13:09:38.050Z,99740.98
2019-04-06T13:12:26.666Z,99741.95
2019-04-06T13:15:10.757Z,99743.50
2019-04-06T13:18:15.119Z,99733.98
2019-04-06T13:21:06.982Z,99739.48
2019-04-06T13:24:00.957Z,99733.78
2019-04-06T13:27:01.733Z,99722.77
2019-04-06T13:29:54.638Z,99732.59
2019-04-06T13:32:45.406Z,99733.56
2019-04-06T13:35:36.960Z,99718.08
2019-04-06T13:38:26.117Z,99726.63
2019-04-06T13:41:10.513Z,99719.20
2019-04-06T13:43:58.469Z,99723.94
2019-04-06T13:46:58.197Z,99723.12
2019-04-06T13:49:47.649Z,99708.45
2019-04-06T13:52:29.698Z,99727.98
2019-04-06T13:55:38.878Z,99721.37
2019-04-06T13:58:32.055Z,99714.58
2019-04-06T14:01:17.096Z,99715.97
2019-04-06T14:03:58.982Z,99710.70
2019-04-06T14:06:49.797Z,99710.37
2019-04-06T14:09:38.718Z,99718.06
2019-04-06T14:12:28.571Z,99708.50
2019-04-06T14:15:29.616Z,99723.70
2019-04-06T14:18:20.065Z,99713.43
2019-04-06T14:21:10.246Z,99714.52
2019-04-06T14:23:56.496Z,99721.09
2019-04-06T14:26:46.758Z,99724.48
2019-04-06T14:29:46.155Z,99714.69
2019-04-06T14:32:43.229Z,99714.44
2019-04-06T14:35:32.776Z,99715.06
2019-04-06T14:38:36.908Z,99717.31
2019-04-06T14:41:25.604Z,99717.64
2019-04-06T14:44:37.855Z,99724.31
2019-04-06T14:47:23.232Z,99717.70
2019-04-06T14:50:11.202Z,99717.11
2019-04-06T14:52:55.021Z,99723.19
2019-04-06T14:55:49.115Z,99715.12
2019-04-06T14:58:45.185Z,99719.95
2019-04-06T15:01:45.606Z,99719.33
2019-04-06T15:04:29.045Z,99728.25
2019-04-06T15:07:33.615Z,99718.47
2019-04-06T15:10:24.145Z,99722.06
2019-04-06T15:13:13.105Z,99716.95
2019-04-06T15:16:20.273Z,99723.88
2019-04-06T15:19:17.722Z,99718.75
2019-04-06T15:21:56.653Z,99722.05
2019-04-06T15:24:50.827Z,99715.75
2019-04-06T15:27:45.495Z,99718.03
2019-04-06T15:31:05.386Z,99722.25
2019-04-06T15:34:14.475Z,99713.81
2019-04-06T15:37:03.195Z,99715.61
2019-04-06T15:40:12.353Z,99717.83
2019-04-06T15:42:59.089Z,99723.41
2019-04-06T15:45:45.685Z,99718.63
2019-04-06T15:48:38.030Z,99718.47
2019-04-06T15:51:42.088Z,99721.02
2019-04-06T15:54:29.893Z,99723.78
2019-04-06T15:57:31.266Z,99713.59
2019-04-06T16:00:18.072Z,99715.36
2019-04-06T16:03:28.753Z,99719.95
2019-04-06T16:06:16.979Z,99718.72
2019-04-06T16:09:27.264Z,99730.94
2019-04-06T16:12:19.049Z,99730.02
2019-04-06T16:15:08.413Z,99728.98
2019-04-06T16:18:06.577Z,99735.32
2019-04-06T16:20:44.201Z,99733.77
2019-04-06T16:24:02.313Z,99733.94
2019-04-06T16:26:45.288Z,99734.59
2019-04-06T16:29:34.479Z,99737.69
2019-04-06T16:32:33.497Z,99734.70
2019-04-06T16:35:23.110Z,99742.75
2019-04-06T16:38:17.917Z,99737.83
2019-04-06T16:41:17.662Z,99744.78
2019-04-06T16:44:06.401Z,99744.97
2019-04-06T16:47:02.706Z,99747.61
2019-04-06T16:49:55.786Z,99747.08
2019-04-06T16:52:48.795Z,99744.78
2019-04-06T16:55:31.308Z,99754.80
2019-04-06T16:58:33.815Z,99749.58
2019-04-06T17:01:30.852Z,99752.25
2019-04-06T17:04:19.875Z,99755.36
2019-04-06T17:07:15.886Z,99760.33
2019-04-06T17:10:01.029Z,99761.81
2019-04-06T17:13:02.250Z,99770.89
2019-04-06T17:15:56.497Z,99768.34
2019-04-06T17:18:46.626Z,99772.12
2019-04-06T17:21:34.493Z,99774.80
2019-04-06T17:24:40.140Z,99769.28
2019-04-06T17:28:32.972Z,99770.94
2019-04-06T17:30:32.189Z,99775.34
2019-04-06T17:33:21.374Z,99778.17
2019-04-06T17:36:06.799Z,99779.98
2019-04-06T17:38:59.949Z,99782.52
2019-04-06T17:41:52.173Z,99787.95
2019-04-06T17:44:55.250Z,99792.23
2019-04-06T17:47:45.625Z,99797.81
2019-04-06T17:50:48.803Z,99796.66
2019-04-06T17:53:42.068Z,99797.45
2019-04-06T17:56:30.088Z,99800.86
2019-04-06T17:59:22.361Z,99802.53
2019-04-06T18:02:18.986Z,99813.99
2019-04-06T18:05:03.392Z,99811.38
2019-04-06T18:07:57.137Z,99812.58
2019-04-06T18:10:50.114Z,99812.53
2019-04-06T18:13:28.520Z,99817.36
2019-04-06T18:16:00.582Z,99823.41
2019-04-06T18:18:32.662Z,99824.15
2019-04-06T18:21:33.865Z,99828.94
2019-04-06T18:23:55.646Z,99831.59
2019-04-06T18:26:27.858Z,99835.30
2019-04-06T18:28:59.864Z,99834.70
2019-04-06T18:31:53.587Z,99840.50
2019-04-06T18:34:27.414Z,99836.99
2019-04-06T18:37:25.690Z,99845.88
2019-04-06T18:39:58.384Z,99847.81
2019-04-06T18:42:29.729Z,99851.91
2019-04-06T18:45:04.574Z,99847.43
2019-04-06T18:47:36.859Z,99853.02
2019-04-06T18:50:34.206Z,99842.01
2019-04-06T18:52:53.111Z,99846.41
2019-04-06T18:55:25.441Z,99847.41
2019-04-06T18:58:08.876Z,99851.53
2019-04-06T19:00:30.946Z,99851.43
2019-04-06T19:03:15.091Z,99853.56
2019-04-06T19:05:45.452Z,99853.48
2019-04-06T19:08:16.940Z,99855.30
2019-04-06T19:10:48.668Z,99857.20
2019-04-06T19:13:20.506Z,99855.34
2019-04-06T19:15:52.901Z,99857.47
2019-04-06T19:18:25.770Z,99861.36
2019-04-06T19:20:56.980Z,99860.12
2019-04-06T19:23:28.409Z,99857.85
2019-04-06T19:25:59.521Z,99857.45
2019-04-06T19:28:31.441Z,99852.84
2019-04-06T19:31:03.716Z,99852.31
2019-04-06T19:33:35.155Z,99854.65
2019-04-06T19:36:07.031Z,99861.50
2019-04-06T19:38:42.956Z,99857.10
2019-04-06T19:41:14.684Z,99863.37
2019-04-06T19:43:46.722Z,99853.00
2019-04-06T19:46:20.228Z,99858.55
2019-04-06T19:48:53.685Z,99862.23
2019-04-06T19:51:29.933Z,99861.97
2019-04-06T19:54:05.781Z,99855.98
2019-04-06T19:56:39.862Z,99865.13
2019-04-06T19:59:14.004Z,99852.56
2019-04-06T20:01:49.252Z,99858.95
2019-04-06T20:04:22.800Z,99854.26
2019-04-06T20:06:54.557Z,99854.63
2019-04-06T20:09:25.784Z,99855.72
2019-04-06T20:12:04.142Z,99855.34
2019-04-06T20:14:30.069Z,99851.86
2019-04-06T20:17:02.034Z,99850.28
2019-04-06T20:19:35.096Z,99852.94
2019-04-06T20:22:07.499Z,99850.69
2019-04-06T20:24:39.227Z,99849.02
2019-04-06T20:27:10.587Z,99853.36
2019-04-06T20:29:42.045Z,99848.28
2019-04-06T20:32:13.364Z,99849.33
2019-04-06T20:34:47.449Z,99843.95
2019-04-06T20:37:21.568Z,99844.30
2019-04-06T20:39:54.775Z,99842.45
2019-04-06T20:42:27.234Z,99841.30
2019-04-06T20:45:00.684Z,99843.59
2019-04-06T20:47:33.228Z,99838.12
2019-04-06T20:50:05.051Z,99837.89
2019-04-06T20:52:37.284Z,99841.53
2019-04-06T20:55:10.154Z,99828.47
2019-04-06T20:57:41.461Z,99841.86
2019-04-06T21:00:12.974Z,99839.55
2019-04-06T21:02:45.167Z,99840.70
2019-04-06T21:05:16.742Z,99836.20
2019-04-06T21:07:48.850Z,99836.64
2019-04-06T21:10:20.246Z,99839.41
2019-04-06T21:12:52.632Z,99843.76
2019-04-06T21:15:24.915Z,99837.98
2019-04-06T21:17:56.708Z,99844.08
2019-04-06T21:20:27.850Z,99841.50
2019-04-06T21:23:00.143Z,99835.45
2019-04-06T21:25:31.387Z,99841.31
2019-04-06T21:28:04.222Z,99837.12
2019-04-06T21:30:35.692Z,99841.87
2019-04-06T21:33:09.016Z,99836.68
2019-04-06T21:35:41.113Z,99842.59
2019-04-06T21:38:12.550Z,99838.61
2019-04-06T21:40:45.048Z,99834.64
2019-04-06T21:43:17.297Z,99842.31
2019-04-06T21:45:49.992Z,99838.91
2019-04-06T21:48:22.474Z,99841.09
2019-04-06T21:50:54.873Z,99842.89
2019-04-06T21:53:26.811Z,99848.05
2019-04-06T21:56:03.479Z,99837.76
2019-04-06T21:58:32.465Z,99842.20
2019-04-06T22:01:05.914Z,99837.56
2019-04-06T22:03:38.124Z,99836.95
2019-04-06T22:06:10.086Z,99843.93
2019-04-06T22:08:42.023Z,99841.28
2019-04-06T22:11:13.928Z,99844.24
2019-04-06T22:13:45.869Z,99839.45
2019-04-06T22:16:17.898Z,99840.78
2019-04-06T22:18:49.872Z,99839.96
2019-04-06T22:21:21.594Z,99837.41
2019-04-06T22:23:54.704Z,99839.19
2019-04-06T22:26:27.712Z,99840.86
2019-04-06T22:28:59.626Z,99836.88
2019-04-06T22:31:32.323Z,99833.72
2019-04-06T22:34:03.626Z,99835.34
2019-04-06T22:36:35.616Z,99833.52
2019-04-06T22:39:11.065Z,99837.88
2019-04-06T22:41:43.353Z,99837.56
2019-04-06T22:44:15.245Z,99833.28
2019-04-06T22:46:47.568Z,99832.14
2019-04-06T22:49:19.629Z,99835.16
2019-04-06T22:51:51.640Z,99839.44
2019-04-06T22:54:23.942Z,99839.00
2019-04-06T22:56:55.344Z,99839.34
2019-04-06T22:59:27.255Z,99835.27
2019-04-06T23:01:59.077Z,99833.53
2019-04-06T23:04:47.533Z,99831.59
2019-04-06T23:07:14.997Z,99830.97
2019-04-06T23:09:47.153Z,99835.06
2019-04-06T23:12:19.037Z,99830.47
2019-04-06T23:14:52.212Z,99835.05
2019-04-06T23:17:24.135Z,99828.23
2019-04-06T23:19:55.945Z,99830.14
2019-04-06T23:22:27.812Z,99834.98
2019-04-06T23:24:59.729Z,99834.73
2019-04-06T23:27:31.806Z,99827.00
2019-04-06T23:30:04.492Z,99828.45
2019-04-06T23:32:36.413Z,99828.95
2019-04-06T23:35:08.379Z,99830.19
2019-04-06T23:37:40.351Z,99831.55
2019-04-06T23:40:12.299Z,99834.31
2019-04-06T23:42:43.483Z,99829.60
2019-04-06T23:45:15.373Z,99834.14
2019-04-06T23:47:48.349Z,99834.59
2019-04-06T23:50:20.254Z,99833.52
2019-04-06T23:52:51.588Z,99832.37
2019-04-06T23:55:22.801Z,99829.95
2019-04-06T23:57:54.620Z,99830.74
